MiSS Donna — WDG2382 — position and weather

sailwx.info

Track history (hours):
 
Tides and Currents Weather Stations Pressure Air Temp Water Temp Dewpoint Dewpoint Depression Visibility Wind Speed Wind Dir Waves Ship Positions

MiSS Donna

Owner: OCEAN MARINE BOAT RENTALS,LLC, MORGAN CITY, LA. More information available from US FCC via Universal Licensing System and Coast Guard Vessel Documentation Center.

Last reported at 2016-Jul-28 21:33 UTC. Time now 2016-Jul-28 22:18 UTC.
Position N 39°15' W 076°35'.

Length 21 m; draft 2.7 m.

Type: Towing. MMSI: 367515090.

Date/timePositionNaut miles runAvg speedWind from/ knotsBaromVisibWave heightAir tempDewpointWater temp
2016-Jul-28 21:33N 39°15' W 076°35'1 0.6
2016-Jul-28 20:33N 39°15' W 076°35'0 0.0
2016-Jul-28 19:34N 39°15' W 076°35'2 2.2
2016-Jul-28 18:33N 39°13' W 076°35'0 0.1
2016-Jul-28 17:33N 39°13' W 076°35'0 0.0
2016-Jul-28 16:33N 39°13' W 076°35'0 0.0
2016-Jul-28 15:33N 39°13' W 076°35'0 0.0
2016-Jul-28 14:33N 39°13' W 076°35'0 0.0
2016-Jul-28 13:33N 39°13' W 076°35'0 0.0
2016-Jul-28 12:31N 39°13' W 076°35'0 0.0
2016-Jul-28 11:33N 39°13' W 076°35'0 0.0
2016-Jul-28 10:33N 39°13' W 076°35'0 0.0
2016-Jul-28 09:33N 39°13' W 076°35'0 0.0
2016-Jul-28 08:33N 39°13' W 076°35'0 0.0
2016-Jul-28 07:33N 39°13' W 076°35'0 0.0
2016-Jul-28 06:33N 39°13' W 076°35'0 0.0
2016-Jul-28 05:33N 39°13' W 076°35'0 0.0
2016-Jul-28 04:34N 39°13' W 076°35'0 0.0
2016-Jul-28 03:33N 39°13' W 076°35'0 0.0
2016-Jul-28 02:33N 39°13' W 076°35'0 0.0
2016-Jul-28 01:33N 39°13' W 076°35'0 0.0
2016-Jul-28 00:33N 39°13' W 076°35'0 0.0
2016-Jul-27 23:33N 39°13' W 076°35'0 0.0
2016-Jul-27 22:33N 39°13' W 076°35'0 0.0
2016-Jul-27 21:32N 39°13' W 076°35'0 0.0
2016-Jul-27 20:31N 39°13' W 076°35'0 0.0
2016-Jul-27 19:33N 39°13' W 076°35'0 0.1
2016-Jul-27 18:34N 39°13' W 076°35'2 2.3
2016-Jul-27 17:33N 39°15' W 076°35'0 0.0
2016-Jul-27 16:34N 39°15' W 076°35'1 0.8
2016-Jul-27 15:33N 39°16' W 076°35'0 0.1
2016-Jul-27 14:33N 39°16' W 076°35'0 0.3
2016-Jul-27 13:33N 39°15' W 076°35'1 0.6
2016-Jul-27 12:33N 39°15' W 076°35'2 2.3
2016-Jul-27 11:33N 39°13' W 076°35'0 0.0
2016-Jul-27 10:33N 39°13' W 076°35'0 0.0
2016-Jul-27 09:33N 39°13' W 076°35'0 0.0
2016-Jul-27 08:33N 39°13' W 076°35'0 0.0
2016-Jul-27 07:33N 39°13' W 076°35'0 0.0
2016-Jul-27 06:33N 39°13' W 076°35'0 0.0
2016-Jul-27 05:33N 39°13' W 076°35'0 0.0
2016-Jul-27 04:33N 39°13' W 076°35'0 0.0
2016-Jul-27 03:33N 39°13' W 076°35'0 0.0
2016-Jul-27 02:33N 39°13' W 076°35'0 0.0
2016-Jul-27 01:33N 39°13' W 076°35'0 0.0
2016-Jul-27 00:33N 39°13' W 076°35'0 0.0
2016-Jul-26 23:33N 39°13' W 076°35'0 0.0
2016-Jul-26 22:33N 39°13' W 076°35'0 0.0
2016-Jul-26 21:33N 39°13' W 076°35'0 0.0
2016-Jul-26 20:33N 39°13' W 076°35'0 0.0
2016-Jul-26 19:33N 39°13' W 076°35'0 0.0
2016-Jul-26 18:33N 39°13' W 076°35'2 2.0
2016-Jul-26 17:33N 39°14' W 076°33'2 1.9
2016-Jul-26 16:33N 39°13' W 076°35'0 0.1
2016-Jul-26 15:32N 39°13' W 076°35'0 0.0
2016-Jul-26 14:31N 39°13' W 076°35'0 0.0
2016-Jul-26 13:32N 39°13' W 076°35'0 0.0
2016-Jul-26 12:33N 39°13' W 076°35'0 0.0
2016-Jul-26 11:33N 39°13' W 076°35'0 0.0
2016-Jul-26 10:33N 39°13' W 076°35'0 0.0
2016-Jul-26 09:33N 39°13' W 076°35'0 0.0
2016-Jul-26 08:33N 39°13' W 076°35'0 0.0
2016-Jul-26 07:33N 39°13' W 076°35'0 0.0
2016-Jul-26 06:33N 39°13' W 076°35'0 0.0
2016-Jul-26 05:33N 39°13' W 076°35'0 0.0
2016-Jul-26 04:33N 39°13' W 076°35'0 0.0
2016-Jul-26 03:33N 39°13' W 076°35'0 0.0
2016-Jul-26 02:33N 39°13' W 076°35'0 0.0
2016-Jul-26 01:32N 39°13' W 076°35'0 0.0
2016-Jul-26 00:33N 39°13' W 076°35'0 0.0
2016-Jul-25 23:33N 39°13' W 076°35'0 0.0
2016-Jul-25 22:33N 39°13' W 076°35'3 3.0
2016-Jul-25 21:34N 39°16' W 076°35'1 0.8
2016-Jul-25 20:33N 39°15' W 076°35'3 3.1
2016-Jul-25 19:33N 39°13' W 076°32'2 2.1
2016-Jul-25 18:33N 39°13' W 076°29'4 4.5
2016-Jul-25 17:33N 39°13' W 076°35'0 0.3
2016-Jul-25 16:33N 39°13' W 076°34'0 0.0
2016-Jul-25 15:34N 39°13' W 076°34'0 0.0
2016-Jul-25 14:33N 39°13' W 076°34'2 2.4
2016-Jul-25 13:33N 39°15' W 076°35'0 0.3
2016-Jul-25 12:33N 39°15' W 076°34'2 2.3
2016-Jul-25 11:33N 39°13' W 076°35'0 0.0
2016-Jul-25 10:33N 39°13' W 076°35'0 0.0
2016-Jul-25 09:33N 39°13' W 076°35'0 0.0
2016-Jul-25 08:33N 39°13' W 076°35'0 0.0
2016-Jul-25 07:33N 39°13' W 076°35'0 0.0
2016-Jul-25 06:33N 39°13' W 076°35'0 0.0
2016-Jul-25 05:29N 39°13' W 076°35'0 0.0
2016-Jul-25 04:33N 39°13' W 076°35'0 0.0
2016-Jul-25 03:33N 39°13' W 076°35'0 0.0
2016-Jul-25 02:30N 39°13' W 076°35'0 0.0
2016-Jul-25 01:32N 39°13' W 076°35'0 0.0
2016-Jul-25 00:33N 39°13' W 076°35'0 0.0
2016-Jul-24 23:33N 39°13' W 076°35'0 0.0
2016-Jul-24 22:33N 39°13' W 076°35'0 0.0
2016-Jul-24 21:33N 39°13' W 076°35'0 0.0
2016-Jul-24 20:28N 39°13' W 076°35'0 0.0
2016-Jul-24 19:30N 39°13' W 076°35'0 0.0
2016-Jul-24 18:28N 39°13' W 076°35'0 0.0
2016-Jul-24 17:30N 39°13' W 076°35'0 0.0
2016-Jul-24 16:19N 39°13' W 076°35'0 0.0
2016-Jul-24 15:11N 39°13' W 076°35'0 0.0
2016-Jul-24 14:33N 39°13' W 076°35'0 0.0
2016-Jul-24 13:34N 39°13' W 076°35'0 0.0
2016-Jul-24 12:33N 39°13' W 076°35'0 0.0
2016-Jul-24 11:33N 39°13' W 076°35'0 0.0
2016-Jul-24 10:33N 39°13' W 076°35'0 0.0
2016-Jul-24 09:34N 39°13' W 076°35'0 0.0
2016-Jul-24 08:33N 39°13' W 076°35'0 0.0
2016-Jul-24 07:33N 39°13' W 076°35'0 0.0
2016-Jul-24 06:33N 39°13' W 076°35'0 0.0
2016-Jul-24 05:33N 39°13' W 076°35'0 0.0
2016-Jul-24 04:33N 39°13' W 076°35'0 0.0
2016-Jul-24 03:33N 39°13' W 076°35'0 0.0
2016-Jul-24 02:33N 39°13' W 076°35'0 0.0
2016-Jul-24 01:33N 39°13' W 076°35'0 0.0
2016-Jul-24 00:33N 39°13' W 076°35'0 0.0
2016-Jul-23 23:31N 39°13' W 076°35'0 0.0
2016-Jul-23 22:33N 39°13' W 076°35'0 0.0
2016-Jul-23 21:33N 39°13' W 076°35'0 0.0
2016-Jul-23 20:33N 39°13' W 076°35'0 0.0
2016-Jul-23 19:33N 39°13' W 076°35'0 0.0
2016-Jul-23 18:33N 39°13' W 076°35'0 0.0
2016-Jul-23 17:32N 39°13' W 076°35'0 0.5
2016-Jul-23 16:33N 39°13' W 076°35'2 1.9
2016-Jul-23 15:32N 39°15' W 076°35'0 0.0
2016-Jul-23 14:33N 39°15' W 076°35'1 0.6
2016-Jul-23 13:33N 39°15' W 076°35'3 2.6
2016-Jul-23 12:33N 39°13' W 076°35'0 0.0
2016-Jul-23 11:32N 39°13' W 076°35'0 0.0
2016-Jul-23 10:33N 39°13' W 076°35'0 0.0
2016-Jul-23 09:33N 39°13' W 076°35'0 0.0
2016-Jul-23 08:33N 39°13' W 076°35'0 0.0
2016-Jul-23 07:33N 39°13' W 076°35'0 0.0
2016-Jul-23 06:33N 39°13' W 076°35'0 0.0
2016-Jul-23 04:33N 39°13' W 076°35'0 0.0
2016-Jul-23 03:33N 39°13' W 076°35'0 0.0
2016-Jul-23 02:33N 39°13' W 076°35'0 0.0
2016-Jul-23 01:33N 39°13' W 076°35'0 0.0
2016-Jul-23 00:33N 39°13' W 076°35'0 0.0
2016-Jul-22 23:33N 39°13' W 076°35'0 0.0
2016-Jul-22 22:32N 39°13' W 076°35'0 0.0
2016-Jul-22 21:33N 39°13' W 076°35'0 0.0
2016-Jul-22 20:33N 39°13' W 076°35'0 0.0
2016-Jul-22 19:33N 39°13' W 076°35'3 2.6
2016-Jul-22 18:33N 39°15' W 076°35'0 0.3
2016-Jul-22 17:33N 39°15' W 076°35'0 0.1
2016-Jul-22 16:33N 39°15' W 076°35'1 0.9
2016-Jul-22 15:31N 39°16' W 076°35'1 0.9
2016-Jul-22 14:33N 39°15' W 076°35'2 2.4
2016-Jul-22 13:33N 39°13' W 076°34'0 0.0
2016-Jul-22 12:33N 39°13' W 076°34'0 0.3
2016-Jul-22 11:33N 39°13' W 076°35'0 0.0
2016-Jul-22 10:32N 39°13' W 076°35'0 0.0
2016-Jul-22 09:33N 39°13' W 076°35'0 0.0
2016-Jul-22 08:33N 39°13' W 076°35'0 0.0
2016-Jul-22 07:34N 39°13' W 076°35'0 0.0
2016-Jul-22 05:33N 39°13' W 076°35'0 0.0
2016-Jul-22 04:33N 39°13' W 076°35'0 0.0
2016-Jul-22 03:34N 39°13' W 076°35'0 0.0
2016-Jul-22 02:33N 39°13' W 076°35'0 0.0
2016-Jul-22 01:33N 39°13' W 076°35'0 0.0
2016-Jul-22 00:34N 39°13' W 076°35'0 0.0
2016-Jul-21 23:33N 39°13' W 076°35'0 0.0
2016-Jul-21 22:33N 39°13' W 076°35'0 0.0
2016-Jul-21 21:33N 39°13' W 076°35'0 0.0
2016-Jul-21 20:33N 39°13' W 076°35'0 0.0
2016-Jul-21 19:33N 39°13' W 076°35'0 0.0
2016-Jul-21 18:33N 39°13' W 076°35'0 0.0
2016-Jul-21 17:33N 39°13' W 076°35'0 0.0
2016-Jul-21 16:22N 39°13' W 076°35'0 0.0
2016-Jul-21 15:33N 39°13' W 076°35'0 0.0
2016-Jul-21 14:33N 39°13' W 076°35'0 0.0
2016-Jul-21 13:33N 39°13' W 076°35'0 0.0
2016-Jul-21 12:33N 39°13' W 076°35'0 0.0
2016-Jul-21 11:34N 39°13' W 076°35'0 0.0
2016-Jul-21 10:29N 39°13' W 076°35'0 0.0
2016-Jul-21 09:22N 39°13' W 076°35'0 0.0
2016-Jul-21 08:27N 39°13' W 076°35'0 0.0
2016-Jul-21 07:33N 39°13' W 076°35'0 0.0
2016-Jul-21 06:29N 39°13' W 076°35'0 0.0
2016-Jul-21 05:30N 39°13' W 076°35'0 0.0
2016-Jul-21 04:32N 39°13' W 076°35'0 0.0
2016-Jul-21 03:33N 39°13' W 076°35'0 0.0
2016-Jul-21 02:33N 39°13' W 076°35'0 0.0
2016-Jul-21 01:33N 39°13' W 076°35'0 0.0
2016-Jul-21 00:33N 39°13' W 076°35'0 0.0
2016-Jul-20 23:24N 39°13' W 076°35'0 0.0
2016-Jul-20 22:29N 39°13' W 076°35'0 0.0
2016-Jul-20 21:33N 39°13' W 076°35'0 0.0
2016-Jul-20 18:33N 39°13' W 076°35'4 3.8
2016-Jul-20 17:34N 39°16' W 076°35'4 3.2
2016-Jul-20 16:27N 39°13' W 076°35'0 0.2
2016-Jul-20 14:33N 39°13' W 076°35'0 0.0
2016-Jul-20 13:33N 39°13' W 076°35'0 0.0
2016-Jul-20 12:33N 39°13' W 076°35'0 0.0
2016-Jul-20 11:30N 39°13' W 076°35'0 0.0
2016-Jul-20 10:31N 39°13' W 076°35'0 0.0
2016-Jul-20 09:32N 39°13' W 076°35'0 0.0
2016-Jul-20 08:33N 39°13' W 076°35'0 0.0
2016-Jul-20 07:33N 39°13' W 076°35'0 0.0
2016-Jul-20 06:34N 39°13' W 076°35'0 0.0
2016-Jul-20 05:33N 39°13' W 076°35'0 0.0
2016-Jul-20 04:33N 39°13' W 076°35'0 0.0
2016-Jul-20 03:33N 39°13' W 076°35'0 0.0
2016-Jul-20 02:33N 39°13' W 076°35'0 0.0
2016-Jul-20 01:31N 39°13' W 076°35'0 0.0
2016-Jul-20 00:33N 39°13' W 076°35'0 0.0
2016-Jul-19 21:30N 39°13' W 076°35'0 0.0
2016-Jul-19 19:23N 39°13' W 076°35'0 0.0
2016-Jul-19 18:23N 39°13' W 076°35'2 2.6
2016-Jul-19 17:31N 39°15' W 076°34'0 0.3
2016-Jul-19 16:32N 39°15' W 076°35'0 0.0
2016-Jul-19 15:33N 39°15' W 076°35'0 0.0
2016-Jul-19 14:33N 39°15' W 076°35'2 2.3
2016-Jul-19 13:33N 39°13' W 076°35'0 0.0
2016-Jul-19 12:30N 39°13' W 076°35'0 0.4
2016-Jul-19 11:32N 39°13' W 076°34'0 0.3
2016-Jul-19 10:28N 39°13' W 076°35'0 0.0
2016-Jul-19 08:29N 39°13' W 076°35'0 0.0
2016-Jul-19 07:31N 39°13' W 076°35'0 0.0
2016-Jul-19 04:31N 39°13' W 076°35'0 0.0
2016-Jul-19 03:33N 39°13' W 076°35'0 0.0
2016-Jul-19 02:32N 39°13' W 076°35'0 0.0
2016-Jul-19 01:29N 39°13' W 076°35'0 0.0
2016-Jul-19 00:32N 39°13' W 076°35'0 0.0
2016-Jul-18 23:33N 39°13' W 076°35'  
Track history (hours):
 
Tides and Currents Weather Stations Pressure Air Temp Water Temp Dewpoint Dewpoint Depression Visibility Wind Speed Wind Dir Waves Ship Positions

MiSS Donna

Owner: OCEAN MARINE BOAT RENTALS,LLC, MORGAN CITY, LA. More information available from US FCC via Universal Licensing System and Coast Guard Vessel Documentation Center.

Last reported at 2016-Jul-28 21:33 UTC. Time now 2016-Jul-28 22:18 UTC.
Position N 39°15' W 076°35'.

Length 21 m; draft 2.7 m.

Type: Towing. MMSI: 367515090.

Date/timePositionNaut miles runAvg speedWind from/ knotsBaromVisibWave heightAir tempDewpointWater temp
2016-Jul-28 21:33N 39°15' W 076°35'1 0.6
2016-Jul-28 20:33N 39°15' W 076°35'0 0.0
2016-Jul-28 19:34N 39°15' W 076°35'2 2.2
2016-Jul-28 18:33N 39°13' W 076°35'0 0.1
2016-Jul-28 17:33N 39°13' W 076°35'0 0.0
2016-Jul-28 16:33N 39°13' W 076°35'0 0.0
2016-Jul-28 15:33N 39°13' W 076°35'0 0.0
2016-Jul-28 14:33N 39°13' W 076°35'0 0.0
2016-Jul-28 13:33N 39°13' W 076°35'0 0.0
2016-Jul-28 12:31N 39°13' W 076°35'0 0.0
2016-Jul-28 11:33N 39°13' W 076°35'0 0.0
2016-Jul-28 10:33N 39°13' W 076°35'0 0.0
2016-Jul-28 09:33N 39°13' W 076°35'0 0.0
2016-Jul-28 08:33N 39°13' W 076°35'0 0.0
2016-Jul-28 07:33N 39°13' W 076°35'0 0.0
2016-Jul-28 06:33N 39°13' W 076°35'0 0.0
2016-Jul-28 05:33N 39°13' W 076°35'0 0.0
2016-Jul-28 04:34N 39°13' W 076°35'0 0.0
2016-Jul-28 03:33N 39°13' W 076°35'0 0.0
2016-Jul-28 02:33N 39°13' W 076°35'0 0.0
2016-Jul-28 01:33N 39°13' W 076°35'0 0.0
2016-Jul-28 00:33N 39°13' W 076°35'0 0.0
2016-Jul-27 23:33N 39°13' W 076°35'0 0.0
2016-Jul-27 22:33N 39°13' W 076°35'0 0.0
2016-Jul-27 21:32N 39°13' W 076°35'0 0.0
2016-Jul-27 20:31N 39°13' W 076°35'0 0.0
2016-Jul-27 19:33N 39°13' W 076°35'0 0.1
2016-Jul-27 18:34N 39°13' W 076°35'2 2.3
2016-Jul-27 17:33N 39°15' W 076°35'0 0.0
2016-Jul-27 16:34N 39°15' W 076°35'1 0.8
2016-Jul-27 15:33N 39°16' W 076°35'0 0.1
2016-Jul-27 14:33N 39°16' W 076°35'0 0.3
2016-Jul-27 13:33N 39°15' W 076°35'1 0.6
2016-Jul-27 12:33N 39°15' W 076°35'2 2.3
2016-Jul-27 11:33N 39°13' W 076°35'0 0.0
2016-Jul-27 10:33N 39°13' W 076°35'0 0.0
2016-Jul-27 09:33N 39°13' W 076°35'0 0.0
2016-Jul-27 08:33N 39°13' W 076°35'0 0.0
2016-Jul-27 07:33N 39°13' W 076°35'0 0.0
2016-Jul-27 06:33N 39°13' W 076°35'0 0.0
2016-Jul-27 05:33N 39°13' W 076°35'0 0.0
2016-Jul-27 04:33N 39°13' W 076°35'0 0.0
2016-Jul-27 03:33N 39°13' W 076°35'0 0.0
2016-Jul-27 02:33N 39°13' W 076°35'0 0.0
2016-Jul-27 01:33N 39°13' W 076°35'0 0.0
2016-Jul-27 00:33N 39°13' W 076°35'0 0.0
2016-Jul-26 23:33N 39°13' W 076°35'0 0.0
2016-Jul-26 22:33N 39°13' W 076°35'0 0.0
2016-Jul-26 21:33N 39°13' W 076°35'0 0.0
2016-Jul-26 20:33N 39°13' W 076°35'0 0.0
2016-Jul-26 19:33N 39°13' W 076°35'0 0.0
2016-Jul-26 18:33N 39°13' W 076°35'2 2.0
2016-Jul-26 17:33N 39°14' W 076°33'2 1.9
2016-Jul-26 16:33N 39°13' W 076°35'0 0.1
2016-Jul-26 15:32N 39°13' W 076°35'0 0.0
2016-Jul-26 14:31N 39°13' W 076°35'0 0.0
2016-Jul-26 13:32N 39°13' W 076°35'0 0.0
2016-Jul-26 12:33N 39°13' W 076°35'0 0.0
2016-Jul-26 11:33N 39°13' W 076°35'0 0.0
2016-Jul-26 10:33N 39°13' W 076°35'0 0.0
2016-Jul-26 09:33N 39°13' W 076°35'0 0.0
2016-Jul-26 08:33N 39°13' W 076°35'0 0.0
2016-Jul-26 07:33N 39°13' W 076°35'0 0.0
2016-Jul-26 06:33N 39°13' W 076°35'0 0.0
2016-Jul-26 05:33N 39°13' W 076°35'0 0.0
2016-Jul-26 04:33N 39°13' W 076°35'0 0.0
2016-Jul-26 03:33N 39°13' W 076°35'0 0.0
2016-Jul-26 02:33N 39°13' W 076°35'0 0.0
2016-Jul-26 01:32N 39°13' W 076°35'0 0.0
2016-Jul-26 00:33N 39°13' W 076°35'0 0.0
2016-Jul-25 23:33N 39°13' W 076°35'0 0.0
2016-Jul-25 22:33N 39°13' W 076°35'3 3.0
2016-Jul-25 21:34N 39°16' W 076°35'1 0.8
2016-Jul-25 20:33N 39°15' W 076°35'3 3.1
2016-Jul-25 19:33N 39°13' W 076°32'2 2.1
2016-Jul-25 18:33N 39°13' W 076°29'4 4.5
2016-Jul-25 17:33N 39°13' W 076°35'0 0.3
2016-Jul-25 16:33N 39°13' W 076°34'0 0.0
2016-Jul-25 15:34N 39°13' W 076°34'0 0.0
2016-Jul-25 14:33N 39°13' W 076°34'2 2.4
2016-Jul-25 13:33N 39°15' W 076°35'0 0.3
2016-Jul-25 12:33N 39°15' W 076°34'2 2.3
2016-Jul-25 11:33N 39°13' W 076°35'0 0.0
2016-Jul-25 10:33N 39°13' W 076°35'0 0.0
2016-Jul-25 09:33N 39°13' W 076°35'0 0.0
2016-Jul-25 08:33N 39°13' W 076°35'0 0.0
2016-Jul-25 07:33N 39°13' W 076°35'0 0.0
2016-Jul-25 06:33N 39°13' W 076°35'0 0.0
2016-Jul-25 05:29N 39°13' W 076°35'0 0.0
2016-Jul-25 04:33N 39°13' W 076°35'0 0.0
2016-Jul-25 03:33N 39°13' W 076°35'0 0.0
2016-Jul-25 02:30N 39°13' W 076°35'0 0.0
2016-Jul-25 01:32N 39°13' W 076°35'0 0.0
2016-Jul-25 00:33N 39°13' W 076°35'0 0.0
2016-Jul-24 23:33N 39°13' W 076°35'0 0.0
2016-Jul-24 22:33N 39°13' W 076°35'0 0.0
2016-Jul-24 21:33N 39°13' W 076°35'0 0.0
2016-Jul-24 20:28N 39°13' W 076°35'0 0.0
2016-Jul-24 19:30N 39°13' W 076°35'0 0.0
2016-Jul-24 18:28N 39°13' W 076°35'0 0.0
2016-Jul-24 17:30N 39°13' W 076°35'0 0.0
2016-Jul-24 16:19N 39°13' W 076°35'0 0.0
2016-Jul-24 15:11N 39°13' W 076°35'0 0.0
2016-Jul-24 14:33N 39°13' W 076°35'0 0.0
2016-Jul-24 13:34N 39°13' W 076°35'0 0.0
2016-Jul-24 12:33N 39°13' W 076°35'0 0.0
2016-Jul-24 11:33N 39°13' W 076°35'0 0.0
2016-Jul-24 10:33N 39°13' W 076°35'0 0.0
2016-Jul-24 09:34N 39°13' W 076°35'0 0.0
2016-Jul-24 08:33N 39°13' W 076°35'0 0.0
2016-Jul-24 07:33N 39°13' W 076°35'0 0.0
2016-Jul-24 06:33N 39°13' W 076°35'0 0.0
2016-Jul-24 05:33N 39°13' W 076°35'0 0.0
2016-Jul-24 04:33N 39°13' W 076°35'0 0.0
2016-Jul-24 03:33N 39°13' W 076°35'0 0.0
2016-Jul-24 02:33N 39°13' W 076°35'0 0.0
2016-Jul-24 01:33N 39°13' W 076°35'0 0.0
2016-Jul-24 00:33N 39°13' W 076°35'0 0.0
2016-Jul-23 23:31N 39°13' W 076°35'0 0.0
2016-Jul-23 22:33N 39°13' W 076°35'0 0.0
2016-Jul-23 21:33N 39°13' W 076°35'0 0.0
2016-Jul-23 20:33N 39°13' W 076°35'0 0.0
2016-Jul-23 19:33N 39°13' W 076°35'0 0.0
2016-Jul-23 18:33N 39°13' W 076°35'0 0.0
2016-Jul-23 17:32N 39°13' W 076°35'0 0.5
2016-Jul-23 16:33N 39°13' W 076°35'2 1.9
2016-Jul-23 15:32N 39°15' W 076°35'0 0.0
2016-Jul-23 14:33N 39°15' W 076°35'1 0.6
2016-Jul-23 13:33N 39°15' W 076°35'3 2.6
2016-Jul-23 12:33N 39°13' W 076°35'0 0.0
2016-Jul-23 11:32N 39°13' W 076°35'0 0.0
2016-Jul-23 10:33N 39°13' W 076°35'0 0.0
2016-Jul-23 09:33N 39°13' W 076°35'0 0.0
2016-Jul-23 08:33N 39°13' W 076°35'0 0.0
2016-Jul-23 07:33N 39°13' W 076°35'0 0.0
2016-Jul-23 06:33N 39°13' W 076°35'0 0.0
2016-Jul-23 04:33N 39°13' W 076°35'0 0.0
2016-Jul-23 03:33N 39°13' W 076°35'0 0.0
2016-Jul-23 02:33N 39°13' W 076°35'0 0.0
2016-Jul-23 01:33N 39°13' W 076°35'0 0.0
2016-Jul-23 00:33N 39°13' W 076°35'0 0.0
2016-Jul-22 23:33N 39°13' W 076°35'0 0.0
2016-Jul-22 22:32N 39°13' W 076°35'0 0.0
2016-Jul-22 21:33N 39°13' W 076°35'0 0.0
2016-Jul-22 20:33N 39°13' W 076°35'0 0.0
2016-Jul-22 19:33N 39°13' W 076°35'3 2.6
2016-Jul-22 18:33N 39°15' W 076°35'0 0.3
2016-Jul-22 17:33N 39°15' W 076°35'0 0.1
2016-Jul-22 16:33N 39°15' W 076°35'1 0.9
2016-Jul-22 15:31N 39°16' W 076°35'1 0.9
2016-Jul-22 14:33N 39°15' W 076°35'2 2.4
2016-Jul-22 13:33N 39°13' W 076°34'0 0.0
2016-Jul-22 12:33N 39°13' W 076°34'0 0.3
2016-Jul-22 11:33N 39°13' W 076°35'0 0.0
2016-Jul-22 10:32N 39°13' W 076°35'0 0.0
2016-Jul-22 09:33N 39°13' W 076°35'0 0.0
2016-Jul-22 08:33N 39°13' W 076°35'0 0.0
2016-Jul-22 07:34N 39°13' W 076°35'0 0.0
2016-Jul-22 05:33N 39°13' W 076°35'0 0.0
2016-Jul-22 04:33N 39°13' W 076°35'0 0.0
2016-Jul-22 03:34N 39°13' W 076°35'0 0.0
2016-Jul-22 02:33N 39°13' W 076°35'0 0.0
2016-Jul-22 01:33N 39°13' W 076°35'0 0.0
2016-Jul-22 00:34N 39°13' W 076°35'0 0.0
2016-Jul-21 23:33N 39°13' W 076°35'0 0.0
2016-Jul-21 22:33N 39°13' W 076°35'0 0.0
2016-Jul-21 21:33N 39°13' W 076°35'0 0.0
2016-Jul-21 20:33N 39°13' W 076°35'0 0.0
2016-Jul-21 19:33N 39°13' W 076°35'0 0.0
2016-Jul-21 18:33N 39°13' W 076°35'0 0.0
2016-Jul-21 17:33N 39°13' W 076°35'0 0.0
2016-Jul-21 16:22N 39°13' W 076°35'0 0.0
2016-Jul-21 15:33N 39°13' W 076°35'0 0.0
2016-Jul-21 14:33N 39°13' W 076°35'0 0.0
2016-Jul-21 13:33N 39°13' W 076°35'0 0.0
2016-Jul-21 12:33N 39°13' W 076°35'0 0.0
2016-Jul-21 11:34N 39°13' W 076°35'0 0.0
2016-Jul-21 10:29N 39°13' W 076°35'0 0.0
2016-Jul-21 09:22N 39°13' W 076°35'0 0.0
2016-Jul-21 08:27N 39°13' W 076°35'0 0.0
2016-Jul-21 07:33N 39°13' W 076°35'0 0.0
2016-Jul-21 06:29N 39°13' W 076°35'0 0.0
2016-Jul-21 05:30N 39°13' W 076°35'0 0.0
2016-Jul-21 04:32N 39°13' W 076°35'0 0.0
2016-Jul-21 03:33N 39°13' W 076°35'0 0.0
2016-Jul-21 02:33N 39°13' W 076°35'0 0.0
2016-Jul-21 01:33N 39°13' W 076°35'0 0.0
2016-Jul-21 00:33N 39°13' W 076°35'0 0.0
2016-Jul-20 23:24N 39°13' W 076°35'0 0.0
2016-Jul-20 22:29N 39°13' W 076°35'0 0.0
2016-Jul-20 21:33N 39°13' W 076°35'0 0.0
2016-Jul-20 18:33N 39°13' W 076°35'4 3.8
2016-Jul-20 17:34N 39°16' W 076°35'4 3.2
2016-Jul-20 16:27N 39°13' W 076°35'0 0.2
2016-Jul-20 14:33N 39°13' W 076°35'0 0.0
2016-Jul-20 13:33N 39°13' W 076°35'0 0.0
2016-Jul-20 12:33N 39°13' W 076°35'0 0.0
2016-Jul-20 11:30N 39°13' W 076°35'0 0.0
2016-Jul-20 10:31N 39°13' W 076°35'0 0.0
2016-Jul-20 09:32N 39°13' W 076°35'0 0.0
2016-Jul-20 08:33N 39°13' W 076°35'0 0.0
2016-Jul-20 07:33N 39°13' W 076°35'0 0.0
2016-Jul-20 06:34N 39°13' W 076°35'0 0.0
2016-Jul-20 05:33N 39°13' W 076°35'0 0.0
2016-Jul-20 04:33N 39°13' W 076°35'0 0.0
2016-Jul-20 03:33N 39°13' W 076°35'0 0.0
2016-Jul-20 02:33N 39°13' W 076°35'0 0.0
2016-Jul-20 01:31N 39°13' W 076°35'0 0.0
2016-Jul-20 00:33N 39°13' W 076°35'0 0.0
2016-Jul-19 21:30N 39°13' W 076°35'0 0.0
2016-Jul-19 19:23N 39°13' W 076°35'0 0.0
2016-Jul-19 18:23N 39°13' W 076°35'2 2.6
2016-Jul-19 17:31N 39°15' W 076°34'0 0.3
2016-Jul-19 16:32N 39°15' W 076°35'0 0.0
2016-Jul-19 15:33N 39°15' W 076°35'0 0.0
2016-Jul-19 14:33N 39°15' W 076°35'2 2.3
2016-Jul-19 13:33N 39°13' W 076°35'0 0.0
2016-Jul-19 12:30N 39°13' W 076°35'0 0.4
2016-Jul-19 11:32N 39°13' W 076°34'0 0.3
2016-Jul-19 10:28N 39°13' W 076°35'0 0.0
2016-Jul-19 08:29N 39°13' W 076°35'0 0.0
2016-Jul-19 07:31N 39°13' W 076°35'0 0.0
2016-Jul-19 04:31N 39°13' W 076°35'0 0.0
2016-Jul-19 03:33N 39°13' W 076°35'0 0.0
2016-Jul-19 02:32N 39°13' W 076°35'0 0.0
2016-Jul-19 01:29N 39°13' W 076°35'0 0.0
2016-Jul-19 00:32N 39°13' W 076°35'0 0.0
2016-Jul-18 23:33N 39°13' W 076°35'  

Dump ship's entire track history